X  SluitMETAR luchtvaart weer gegevens      EBAW Antwerp International (Deurne)

Temperatuur

2°C Temperatuur

1°C Dauwpunt

93% Vochtigheid



Wind

 8 KM/U

 5 MPH

 2 M/S

 4 KTS



210°
Zuid Zuid
West
Huidig weer

Mist Mist
Luchtdruk 1023.92 (hPa) - 30.24 (in)
Zicht 1.7 (mi) - 2.8 (km)
Vliegveld
Vliegveld code EBAW

Locatie Antwerp International (Deurne) 14 (km)

Metar:
EBAW 240450Z AUTO 21004KT 180V270 2800 BR OVC002/// 02/01 Q1024

Tijd: 24-01-2020 05:50